Time;durP1;ratioP1;P1;durP2;ratioP2;P2;SDS_P1;SDS_P2;PMS_P1;PMS_P2;Temp;Humidity;BMP_temperature;BMP_pressure;BME280_temperature;BME280_humidity;BME280_pressure;Samples;Min_cycle;Max_cycle;Signal;HPM_P1;HPM_P2
2022/03/18 00:01:54;;;;;;;11.10;5.30;;;;;;;0.55;100.00;103081.73;107630;1281;63198;-71
2022/03/18 00:04:21;;;;;;;11.10;5.80;;;;;;;0.51;100.00;103085.52;107688;1280;61745;-71
2022/03/18 00:06:48;;;;;;;14.70;6.60;;;;;;;0.49;100.00;103085.26;107660;1281;74868;-71
2022/03/18 00:09:15;;;;;;;11.40;5.90;;;;;;;0.46;100.00;103090.05;107827;1279;72390;-71
2022/03/18 00:11:42;;;;;;;10.40;5.70;;;;;;;0.41;100.00;103090.89;107826;1279;73000;-71
2022/03/18 00:14:14;;;;;;;11.80;5.70;;;;;;;0.38;100.00;103090.61;107834;1279;62611;-71
2022/03/18 00:16:41;;;;;;;13.00;5.70;;;;;;;0.38;100.00;103090.64;107636;1281;60972;-71
2022/03/18 00:19:07;;;;;;;10.30;5.80;;;;;;;0.37;100.00;103091.70;107541;1281;74960;-70
2022/03/18 00:21:37;;;;;;;17.50;6.10;;;;;;;0.37;100.00;103097.45;107603;1281;59487;-71
2022/03/18 00:24:05;;;;;;;11.10;6.10;;;;;;;0.37;100.00;103099.03;107673;1281;74063;-71
2022/03/18 00:26:35;;;;;;;14.90;6.60;;;;;;;0.36;100.00;103097.30;107552;1281;62139;-71
2022/03/18 00:29:07;;;;;;;11.90;5.80;;;;;;;0.36;100.00;103099.58;107656;1281;61344;-71
2022/03/18 00:31:33;;;;;;;13.70;5.50;;;;;;;0.33;100.00;103098.80;107694;1281;76051;-71
2022/03/18 00:34:22;;;;;;;10.50;6.20;;;;;;;0.31;100.00;103098.02;107742;1281;71077;-71
2022/03/18 00:36:49;;;;;;;10.80;5.00;;;;;;;0.29;100.00;103096.14;107687;1281;73380;-71
2022/03/18 00:39:16;;;;;;;10.60;5.70;;;;;;;0.26;100.00;103094.67;107692;1281;60142;-71
2022/03/18 00:41:42;;;;;;;15.30;6.00;;;;;;;0.23;100.00;103095.32;107617;1280;61909;-71
2022/03/18 00:44:19;;;;;;;14.80;6.10;;;;;;;0.19;100.00;103101.85;107851;1279;59186;-71
2022/03/18 00:46:55;;;;;;;13.30;6.60;;;;;;;0.16;100.00;103101.45;107683;1281;71475;-71
2022/03/18 00:52:08;;;;;;;20.80;7.00;;;;;;;0.11;100.00;103101.96;107856;1279;61619;-71
2022/03/18 00:54:37;;;;;;;16.60;6.30;;;;;;;0.09;100.00;103107.75;107592;1282;61778;-71
2022/03/18 00:57:13;;;;;;;11.60;5.30;;;;;;;0.07;100.00;103111.63;107732;1281;74488;-71
2022/03/18 00:59:39;;;;;;;10.20;5.30;;;;;;;0.05;100.00;103113.09;107645;1281;71551;-71
2022/03/18 01:02:06;;;;;;;16.00;6.40;;;;;;;0.01;100.00;103117.21;107862;1279;73173;-71
2022/03/18 01:04:42;;;;;;;16.70;6.40;;;;;;;-0.04;100.00;103118.41;107535;1281;62502;-71
2022/03/18 01:07:09;;;;;;;18.50;6.50;;;;;;;-0.08;100.00;103119.03;107732;1280;60583;-71
2022/03/18 01:09:41;;;;;;;13.10;6.30;;;;;;;-0.09;100.00;103116.98;107719;1281;74954;-71
2022/03/18 01:12:08;;;;;;;15.90;6.00;;;;;;;-0.08;100.00;103115.55;107723;1281;72651;-71
2022/03/18 01:14:38;;;;;;;14.40;6.60;;;;;;;-0.09;100.00;103119.07;107657;1280;72960;-71
2022/03/18 01:17:05;;;;;;;12.60;5.90;;;;;;;-0.12;100.00;103122.80;107688;1280;62724;-71
2022/03/18 01:19:34;;;;;;;16.10;8.00;;;;;;;-0.13;100.00;103126.84;107664;1280;61667;-71
2022/03/18 01:22:01;;;;;;;14.80;6.30;;;;;;;-0.14;100.00;103132.44;107639;1281;75990;-71
2022/03/18 01:24:28;;;;;;;14.40;6.90;;;;;;;-0.16;100.00;103136.66;107863;1279;70371;-71
2022/03/18 01:26:54;;;;;;;12.60;7.00;;;;;;;-0.16;100.00;103138.61;107677;1281;72087;-72
2022/03/18 01:29:34;;;;;;;15.60;6.60;;;;;;;-0.18;100.00;103136.06;107675;1281;61127;-71
2022/03/18 01:32:01;;;;;;;16.60;7.20;;;;;;;-0.21;100.00;103136.98;107590;1281;60359;-71
2022/03/18 01:34:28;;;;;;;13.10;6.80;;;;;;;-0.22;100.00;103138.58;107689;1281;76012;-71
2022/03/18 01:37:03;;;;;;;11.10;5.70;;;;;;;-0.23;100.00;103135.84;107615;1281;71557;-72
2022/03/18 01:39:30;;;;;;;16.40;5.90;;;;;;;-0.24;100.00;103135.16;107567;1281;74157;-71
2022/03/18 01:41:59;;;;;;;14.10;6.50;;;;;;;-0.26;100.00;103136.61;107617;1281;60598;-71
2022/03/18 01:44:29;;;;;;;10.50;5.60;;;;;;;-0.28;100.00;103134.76;107858;1279;61597;-71
2022/03/18 01:46:58;;;;;;;12.30;5.90;;;;;;;-0.29;100.00;103135.66;107685;1281;75745;-71
2022/03/18 01:49:25;;;;;;;16.40;6.10;;;;;;;-0.31;100.00;103138.85;107574;1281;71697;-71
2022/03/18 01:51:52;;;;;;;15.60;7.00;;;;;;;-0.35;100.00;103136.02;107622;1281;73075;-71
2022/03/18 01:57:04;;;;;;;15.10;6.40;;;;;;;-0.44;100.00;103143.73;107794;1279;62976;-71
2022/03/18 01:59:30;;;;;;;18.80;6.20;;;;;;;-0.49;100.00;103149.60;107421;1281;76226;-71
2022/03/18 02:01:57;;;;;;;10.10;5.60;;;;;;;-0.52;100.00;103153.16;107827;1279;70393;-71
2022/03/18 02:04:27;;;;;;;13.20;6.30;;;;;;;-0.55;100.00;103151.54;107824;1279;74067;-71
2022/03/18 02:06:54;;;;;;;11.00;5.70;;;;;;;-0.59;100.00;103154.23;107696;1281;62290;-71
2022/03/18 02:09:21;;;;;;;23.10;7.00;;;;;;;-0.63;100.00;103157.27;107548;1281;61806;-71
2022/03/18 02:11:48;;;;;;;13.40;6.20;;;;;;;-0.65;100.00;103158.04;107602;1281;74932;-71
2022/03/18 02:14:32;;;;;;;10.30;5.70;;;;;;;-0.68;100.00;103158.13;107560;1282;70401;-72
2022/03/18 02:17:13;;;;;;;;;;;;;;;;;;;;;
2022/03/18 02:19:44;;;;;;;18.50;6.60;;;;;;;-0.74;100.00;103164.90;107417;1281;61242;-71
2022/03/18 02:22:30;;;;;;;17.50;6.70;;;;;;;-0.77;100.00;103166.19;107762;1280;61599;-71
2022/03/18 02:25:00;;;;;;;14.70;6.30;;;;;;;-0.80;100.00;103171.48;107607;1281;76069;-71
2022/03/18 02:27:26;;;;;;;10.70;6.50;;;;;;;-0.83;100.00;103179.00;107615;1278;72557;-71
2022/03/18 02:29:53;;;;;;;10.10;5.60;;;;;;;-0.85;100.00;103187.92;107614;1281;74028;-72
2022/03/18 02:32:21;;;;;;;13.30;6.80;;;;;;;-0.87;100.00;103188.67;107603;1281;61255;-71
2022/03/18 02:34:48;;;;;;;15.30;7.10;;;;;;;-0.88;100.00;103192.52;107627;1281;60989;-71
2022/03/18 02:37:15;;;;;;;10.30;6.10;;;;;;;-0.89;100.00;103194.12;107542;1281;75979;-71
2022/03/18 02:39:45;;;;;;;22.80;7.30;;;;;;;-0.91;100.00;103199.17;107495;1281;72594;-72
2022/03/18 02:42:12;;;;;;;12.70;6.20;;;;;;;-0.94;100.00;103203.09;107623;1281;72840;-71
2022/03/18 02:44:39;;;;;;;10.70;5.90;;;;;;;-0.94;100.00;103207.80;107500;1281;61541;-71
2022/03/18 02:47:06;;;;;;;17.40;6.40;;;;;;;-0.94;100.00;103211.63;107556;1281;60610;-72
2022/03/18 02:49:32;;;;;;;10.70;5.40;;;;;;;-0.96;100.00;103209.93;107619;1281;75937;-72
2022/03/18 02:51:59;;;;;;;16.00;6.80;;;;;;;-0.97;100.00;103212.20;107553;1281;70657;-72
2022/03/18 02:54:26;;;;;;;14.60;5.90;;;;;;;-1.02;100.00;103215.10;107657;1281;73233;-71
2022/03/18 02:56:52;;;;;;;11.60;6.30;;;;;;;-1.06;100.00;103215.71;107663;1281;63054;-71
2022/03/18 02:59:28;;;;;;;14.30;5.50;;;;;;;-1.08;100.00;103222.02;107551;1281;60626;-72
2022/03/18 03:01:59;;;;;;;10.90;5.00;;;;;;;-1.10;100.00;103225.37;107634;1281;74003;-71
2022/03/18 03:04:29;;;;;;;8.00;4.50;;;;;;;-1.11;100.00;103224.20;107681;1281;71518;-72
2022/03/18 03:09:41;;;;;;;;;;;;;;;-1.14;100.00;103229.29;107767;1279;61306;-72
2022/03/18 03:12:07;;;;;;;10.50;5.60;;;;;;;-1.17;100.00;103233.00;107838;1279;58842;-71
2022/03/18 03:14:36;;;;;;;12.80;5.40;;;;;;;-1.20;100.00;103231.00;107755;1279;73747;-71
2022/03/18 03:17:03;;;;;;;16.20;6.30;;;;;;;-1.23;100.00;103238.36;107643;1281;71560;-72
2022/03/18 03:19:32;;;;;;;13.10;5.90;;;;;;;-1.26;100.00;103239.45;107528;1281;72997;-72
2022/03/18 03:22:04;;;;;;;16.30;6.50;;;;;;;-1.29;100.00;103244.73;107776;1279;58522;-72
2022/03/18 03:24:39;;;;;;;11.80;7.10;;;;;;;-1.32;100.00;103246.73;107627;1281;59407;-72
2022/03/18 03:27:05;;;;;;;16.30;6.30;;;;;;;-1.35;100.00;103248.52;107612;1281;74866;-72
2022/03/18 03:29:32;;;;;;;9.90;5.50;;;;;;;-1.38;100.00;103251.89;107638;1281;71356;-72
2022/03/18 03:31:59;;;;;;;18.30;6.30;;;;;;;-1.40;100.00;103253.85;107605;1281;74132;-72
2022/03/18 03:34:29;;;;;;;16.00;5.90;;;;;;;-1.42;100.00;103258.59;107773;1279;62495;-72
2022/03/18 03:36:56;;;;;;;12.40;5.40;;;;;;;-1.45;100.00;103261.95;107614;1281;59539;-72
2022/03/18 03:39:42;;;;;;;12.10;5.50;;;;;;;-1.50;100.00;103255.80;107803;1279;75019;-72
2022/03/18 03:42:08;;;;;;;10.40;5.80;;;;;;;-1.51;100.00;103268.14;107512;1282;72215;-72
2022/03/18 03:44:35;;;;;;;22.70;5.80;;;;;;;-1.53;100.00;103271.13;107777;1279;74028;-72
2022/03/18 03:47:12;;;;;;;;;;;;;;;;;;;;;
2022/03/18 03:49:44;;;;;;;11.20;5.70;;;;;;;-1.61;100.00;103285.55;107572;1281;59741;-72
2022/03/18 03:52:11;;;;;;;8.90;4.90;;;;;;;-1.66;100.00;103291.88;107621;1280;76902;-72
2022/03/18 03:54:40;;;;;;;13.20;5.20;;;;;;;-1.69;100.00;103300.11;107665;1281;71631;-72
2022/03/18 03:57:10;;;;;;;14.60;6.00;;;;;;;-1.72;100.00;103303.98;107784;1279;73013;-72
2022/03/18 03:59:37;;;;;;;11.20;6.10;;;;;;;-1.75;100.00;103305.95;107660;1281;61288;-72
2022/03/18 04:02:06;;;;;;;10.50;5.70;;;;;;;-1.77;100.00;103305.12;107798;1279;60328;-72
2022/03/18 04:04:52;;;;;;;;;;;;;;;;;;;;;
2022/03/18 04:07:22;;;;;;;9.40;5.80;;;;;;;-1.79;100.00;103310.36;107802;1279;71856;-72
2022/03/18 04:09:54;;;;;;;13.10;6.50;;;;;;;-1.79;100.00;103312.11;107786;1279;73020;-72
2022/03/18 04:12:29;;;;;;;17.80;6.60;;;;;;;-1.79;100.00;103313.30;107654;1281;61547;-72
2022/03/18 04:14:56;;;;;;;14.10;7.30;;;;;;;-1.79;100.00;103316.95;107602;1281;61785;-72
2022/03/18 04:17:23;;;;;;;17.30;6.20;;;;;;;-1.80;100.00;103322.88;107648;1281;74479;-71
2022/03/18 04:20:42;;;;;;;10.00;5.90;;;;;;;-1.83;100.00;103323.61;107709;1281;72836;-72
2022/03/18 04:23:08;;;;;;;11.50;5.70;;;;;;;-1.86;100.00;103326.81;107394;1281;73152;-73
2022/03/18 04:25:42;;;;;;;10.30;5.50;;;;;;;-1.89;100.00;103329.63;107509;1281;61471;-73
2022/03/18 04:28:14;;;;;;;16.70;6.90;;;;;;;-1.89;100.00;103331.02;107632;1281;61757;-73
2022/03/18 04:30:41;;;;;;;12.10;5.70;;;;;;;-1.89;100.00;103338.30;107585;1279;76260;-73
2022/03/18 04:33:22;;;;;;;15.90;6.00;;;;;;;-1.90;100.00;103346.11;107711;1281;70141;-72
2022/03/18 04:36:12;;;;;;;13.60;5.80;;;;;;;-1.91;100.00;103349.80;107663;1281;73042;-72
2022/03/18 04:38:46;;;;;;;15.80;6.10;;;;;;;-1.91;100.00;103351.19;107662;1281;61033;-72
2022/03/18 04:41:22;;;;;;;9.90;6.30;;;;;;;-1.90;100.00;103353.08;107654;1281;61780;-72
2022/03/18 04:44:13;;;;;;;15.90;6.20;;;;;;;-1.91;100.00;103350.50;107809;1279;74967;-72
2022/03/18 04:46:40;;;;;;;15.20;5.70;;;;;;;-1.93;100.00;103356.60;107714;1281;71410;-72
2022/03/18 04:49:07;;;;;;;15.40;6.20;;;;;;;-1.96;100.00;103355.26;104929;1281;3620190;-72
2022/03/18 04:51:43;;;;;;;13.50;6.00;;;;;;;-1.99;100.00;103358.96;107642;1281;61435;-72
2022/03/18 04:54:32;;;;;;;11.50;5.20;;;;;;;-2.03;100.00;103355.73;107555;1282;60340;-71
2022/03/18 04:57:18;;;;;;;10.40;5.30;;;;;;;-2.10;100.00;103356.02;107826;1279;74939;-71
2022/03/18 04:59:49;;;;;;;14.30;6.00;;;;;;;-2.15;100.00;103366.67;107644;1281;72867;-72
2022/03/18 05:02:16;;;;;;;11.70;6.20;;;;;;;-2.21;100.00;103370.80;107668;1281;72979;-71
2022/03/18 05:05:22;;;;;;;;;;;;;;;;;;;;;
2022/03/18 05:08:04;;;;;;;13.00;6.20;;;;;;;-2.28;100.00;103381.48;107463;1282;60850;-71
2022/03/18 05:10:31;;;;;;;13.70;7.00;;;;;;;-2.29;100.00;103378.90;107683;1281;74772;-72
2022/03/18 05:12:57;;;;;;;10.90;5.40;;;;;;;-2.30;100.00;103380.64;107670;1281;72742;-72
2022/03/18 05:15:24;;;;;;;12.80;5.60;;;;;;;-2.30;100.00;103384.98;107510;1281;73039;-71
2022/03/18 05:17:57;;;;;;;9.80;5.10;;;;;;;-2.32;100.00;103387.61;107634;1280;62204;-71
2022/03/18 05:20:38;;;;;;;;;;;;;;;;;;;;;
2022/03/18 05:23:26;;;;;;;10.50;5.60;;;;;;;-2.33;100.00;103391.78;107791;1279;76203;-70
2022/03/18 05:25:53;;;;;;;11.50;6.10;;;;;;;-2.35;100.00;103393.03;107621;1281;71390;-70
2022/03/18 05:28:20;;;;;;;14.90;6.80;;;;;;;-2.36;100.00;103397.55;107787;1278;73992;-71
2022/03/18 05:30:50;;;;;;;10.80;6.00;;;;;;;-2.37;100.00;103402.27;107705;1281;61403;-70
2022/03/18 05:33:26;;;;;;;15.90;6.50;;;;;;;-2.40;100.00;103409.58;107816;1279;61790;-70
2022/03/18 05:35:52;;;;;;;12.40;6.50;;;;;;;-2.42;100.00;103409.77;107696;1279;74955;-70
2022/03/18 05:38:20;;;;;;;13.00;7.00;;;;;;;-2.42;100.00;103409.95;107638;1281;72771;-72
2022/03/18 05:40:49;;;;;;;21.20;6.50;;;;;;;-2.42;100.00;103411.52;107699;1281;73042;-72
2022/03/18 05:43:26;;;;;;;;;;;;;;;;;;;;;
2022/03/18 05:45:53;;;;;;;11.70;6.20;;;;;;;-2.40;100.00;103420.15;107666;1279;59591;-71
2022/03/18 05:48:19;;;;;;;17.80;7.90;;;;;;;-2.40;100.00;103426.55;107836;1279;74938;-72
2022/03/18 05:50:46;;;;;;;18.30;8.30;;;;;;;-2.40;100.00;103427.60;107456;1281;70408;-71
2022/03/18 05:53:34;;;;;;;13.90;6.80;;;;;;;-2.39;100.00;103426.19;107688;1281;73002;-71
2022/03/18 05:58:56;;;;;;;16.10;6.80;;;;;;;-2.37;100.00;103417.50;107825;1279;60939;-71
2022/03/18 06:01:22;;;;;;;13.20;8.00;;;;;;;-2.34;100.00;103423.02;107691;1281;76007;-71
2022/03/18 06:03:53;;;;;;;17.80;7.50;;;;;;;-2.32;100.00;103433.36;107839;1279;71351;-71
2022/03/18 06:06:20;;;;;;;20.00;8.30;;;;;;;-2.28;100.00;103437.63;107660;1281;74041;-71
2022/03/18 06:11:50;;;;;;;15.00;7.80;;;;;;;-2.15;100.00;103451.11;107788;1279;61946;-69
2022/03/18 06:14:23;;;;;;;15.30;6.90;;;;;;;-2.09;100.00;103461.95;107517;1281;75257;-70
2022/03/18 06:16:55;;;;;;;12.90;6.90;;;;;;;-2.03;100.00;103459.61;107695;1281;71356;-69
2022/03/18 06:19:28;;;;;;;15.70;8.10;;;;;;;-1.96;100.00;103459.33;107670;1279;72924;-69
2022/03/18 06:21:55;;;;;;;11.50;6.50;;;;;;;-1.84;100.00;103468.48;107399;1281;61141;-69
2022/03/18 06:24:22;;;;;;;9.00;5.40;;;;;;;-1.74;100.00;103466.57;107401;1279;60310;-70
2022/03/18 06:26:50;;;;;;;15.10;6.70;;;;;;;-1.65;100.00;103466.23;107625;1281;74898;-70
2022/03/18 06:29:18;;;;;;;18.10;7.70;;;;;;;-1.57;100.00;103468.19;107706;1281;71393;-70
2022/03/18 06:31:57;;;;;;;15.20;7.30;;;;;;;-1.52;100.00;103465.31;107723;1280;74322;-70
2022/03/18 06:34:24;;;;;;;22.80;9.30;;;;;;;-1.47;100.00;103467.83;107515;1281;61649;-70
2022/03/18 06:36:53;;;;;;;23.20;10.10;;;;;;;-1.39;100.00;103479.65;107831;1279;61811;-70
2022/03/18 06:39:22;;;;;;;18.30;8.20;;;;;;;-1.28;100.00;103485.52;107404;1279;75008;-70
2022/03/18 06:41:51;;;;;;;26.30;9.10;;;;;;;-1.14;100.00;103485.95;107704;1281;72484;-70
2022/03/18 06:44:19;;;;;;;14.10;8.70;;;;;;;-1.01;100.00;103480.83;107527;1281;74037;-70
2022/03/18 06:46:46;;;;;;;19.00;8.80;;;;;;;-0.89;100.00;103484.39;107729;1280;62470;-70
2022/03/18 06:49:14;;;;;;;20.80;8.90;;;;;;;-0.75;100.00;103495.41;107724;1281;61779;-70
2022/03/18 06:51:41;;;;;;;15.50;8.30;;;;;;;-0.61;100.00;103505.88;107398;1281;74975;-70
2022/03/18 06:54:12;;;;;;;20.90;9.50;;;;;;;-0.46;100.00;103518.40;107642;1281;71357;-71
2022/03/18 06:56:39;;;;;;;21.70;9.00;;;;;;;-0.31;100.00;103522.42;107717;1281;71971;-71
2022/03/18 06:59:05;;;;;;;27.10;9.80;;;;;;;-0.17;100.00;103516.04;107642;1280;61274;-72
2022/03/18 07:01:32;;;;;;;21.00;9.00;;;;;;;-0.03;100.00;103524.39;107763;1281;59730;-72
2022/03/18 07:04:02;;;;;;;20.90;10.70;;;;;;;0.12;100.00;103526.30;107595;1281;75016;-72
2022/03/18 07:06:29;;;;;;;21.20;12.10;;;;;;;0.26;100.00;103529.79;107789;1281;70400;-71
2022/03/18 07:08:56;;;;;;;20.00;10.60;;;;;;;0.41;100.00;103530.65;107822;1279;72781;-71
2022/03/18 07:11:22;;;;;;;19.80;9.00;;;;;;;0.56;100.00;103538.09;107659;1281;61511;-70
2022/03/18 07:13:49;;;;;;;20.80;10.30;;;;;;;0.70;100.00;103541.38;107733;1280;61613;-70
2022/03/18 07:19:12;;;;;;;16.70;8.50;;;;;;;1.00;100.00;103541.97;107896;1277;72415;-71
2022/03/18 07:21:46;;;;;;;19.90;9.00;;;;;;;1.14;100.00;103543.13;107873;1280;72967;-71
2022/03/18 07:24:13;;;;;;;25.10;9.70;;;;;;;1.27;100.00;103543.64;107780;1281;60765;-71
2022/03/18 07:26:42;;;;;;;24.00;9.60;;;;;;;1.41;100.00;103549.70;107819;1281;60720;-72
2022/03/18 07:29:09;;;;;;;18.50;8.10;;;;;;;1.54;100.00;103547.21;107846;1279;76089;-71
2022/03/18 07:31:45;;;;;;;16.30;7.70;;;;;;;1.68;100.00;103553.60;107743;1280;71476;-72
2022/03/18 07:34:14;;;;;;;17.70;8.40;;;;;;;1.82;100.00;103553.36;107695;1281;72973;-72
2022/03/18 07:36:50;;;;;;;15.50;7.80;;;;;;;1.95;100.00;103551.35;107634;1281;61649;-70
2022/03/18 07:39:26;;;;;;;21.90;8.50;;;;;;;2.12;100.00;103548.39;107771;1280;60603;-71
2022/03/18 07:41:55;;;;;;;14.60;7.80;;;;;;;2.29;100.00;103555.36;107777;1281;76173;-70
2022/03/18 07:44:21;;;;;;;14.10;7.10;;;;;;;2.43;100.00;103550.33;107851;1280;70433;-71
2022/03/18 07:47:21;;;;;;;21.90;9.30;;;;;;;2.57;100.00;103546.73;107795;1281;74842;-70
2022/03/18 07:49:52;;;;;;;13.90;7.70;;;;;;;2.76;100.00;103547.10;107829;1279;61329;-73
2022/03/18 07:52:28;;;;;;;19.90;8.40;;;;;;;2.93;100.00;103549.50;107797;1279;60708;-73
2022/03/18 07:55:36;;;;;;;17.50;7.40;;;;;;;3.09;100.00;103545.23;107826;1279;76312;-72
2022/03/18 07:58:04;;;;;;;18.40;7.90;;;;;;;3.29;100.00;103553.43;107741;1280;72258;-71
2022/03/18 08:01:22;;;;;;;;;;;;;;;;;;;;;
2022/03/18 08:03:49;;;;;;;17.90;7.80;;;;;;;3.68;100.00;103557.91;107440;1281;62823;-70
2022/03/18 08:06:24;;;;;;;14.30;7.00;;;;;;;3.84;100.00;103563.08;107915;1279;60345;-71
2022/03/18 08:09:00;;;;;;;13.10;7.50;;;;;;;4.00;100.00;103562.42;107771;1280;76153;-71
2022/03/18 08:11:46;;;;;;;;;;;;;;;;;;;;;
2022/03/18 08:14:13;;;;;;;17.20;6.90;;;;;;;4.30;100.00;103560.33;107715;1279;74041;-71
2022/03/18 08:16:51;;;;;;;8.90;5.30;;;;;;;4.43;100.00;103563.48;107619;1280;62572;-71
2022/03/18 08:19:41;;;;;;;9.30;5.30;;;;;;;4.57;100.00;103557.27;107694;1279;61874;-71
2022/03/18 08:22:08;;;;;;;10.90;5.20;;;;;;;4.73;100.00;103553.64;107837;1280;75961;-71
2022/03/18 08:24:34;;;;;;;13.70;5.10;;;;;;;4.84;100.00;103554.89;107715;1281;59196;-71
2022/03/18 08:27:01;;;;;;;15.80;5.10;;;;;;;4.97;100.00;103560.48;107754;1280;74035;-71
2022/03/18 08:29:59;;;;;;;;;;;;;;;;;;;;;
2022/03/18 08:32:32;;;;;;;8.90;3.40;;;;;;;5.23;99.01;103560.71;107907;1279;60767;-69
2022/03/18 08:35:05;;;;;;;11.40;4.80;;;;;;;5.31;96.78;103559.30;107782;1279;75132;-69
2022/03/18 08:40:16;;;;;;;8.30;3.50;;;;;;;5.46;96.28;103570.55;107865;1279;74118;-69
2022/03/18 08:42:43;;;;;;;7.10;3.30;;;;;;;5.56;95.77;103571.50;107606;1281;61471;-69
2022/03/18 08:45:10;;;;;;;6.60;3.70;;;;;;;5.68;95.50;103568.66;107810;1279;61829;-69
2022/03/18 08:47:40;;;;;;;9.20;3.30;;;;;;;5.79;95.31;103569.88;107879;1280;75042;-69
2022/03/18 08:50:07;;;;;;;8.80;3.60;;;;;;;5.92;94.63;103579.45;107769;1281;71543;-69
2022/03/18 08:52:34;;;;;;;17.50;4.30;;;;;;;6.03;93.25;103587.73;107641;1281;73005;-69
2022/03/18 08:55:26;;;;;;;;;;;;;;;;;;;;;
2022/03/18 08:57:56;;;;;;;11.50;2.60;;;;;;;6.29;92.44;103611.06;107802;1279;61902;-70
2022/03/18 09:00:30;;;;;;;9.30;3.10;;;;;;;6.40;91.02;103608.59;107760;1279;76222;-70
2022/03/18 09:02:57;;;;;;;12.90;2.80;;;;;;;6.52;90.31;103619.61;107853;1281;71126;-70
2022/03/18 09:05:28;;;;;;;10.50;3.10;;;;;;;6.64;89.96;103617.77;107926;1279;72924;-70
2022/03/18 09:07:55;;;;;;;7.90;2.90;;;;;;;6.76;88.95;103616.84;107521;1281;61881;-70
2022/03/18 09:10:21;;;;;;;15.80;3.20;;;;;;;6.87;88.18;103614.16;107709;1279;59038;-69
2022/03/18 09:12:50;;;;;;;9.00;2.20;;;;;;;6.95;86.75;103618.84;107745;1280;59846;-69
2022/03/18 09:15:17;;;;;;;11.30;2.30;;;;;;;7.04;86.32;103613.11;107751;1279;72747;-69
2022/03/18 09:17:52;;;;;;;9.70;2.40;;;;;;;7.15;86.53;103618.65;107771;1281;74000;-68
2022/03/18 09:20:19;;;;;;;8.80;2.30;;;;;;;7.29;85.84;103624.31;107746;1281;61504;-68
2022/03/18 09:22:46;;;;;;;10.80;2.70;;;;;;;7.38;84.20;103631.02;107794;1281;61783;-71
2022/03/18 09:25:14;;;;;;;7.50;2.50;;;;;;;7.46;84.33;103632.38;107756;1279;59113;-70
2022/03/18 09:27:41;;;;;;;7.60;2.40;;;;;;;7.57;84.52;103636.15;107759;1281;72557;-74
2022/03/18 09:30:12;;;;;;;8.90;2.40;;;;;;;7.69;84.45;103636.73;107756;1279;73107;-74
2022/03/18 09:32:42;;;;;;;5.00;1.90;;;;;;;7.87;85.48;103640.02;107773;1281;62865;-74
2022/03/18 09:35:11;;;;;;;7.50;2.70;;;;;;;8.05;84.89;103641.48;107479;1281;60639;-73
2022/03/18 09:37:38;;;;;;;9.70;2.60;;;;;;;8.20;83.27;103643.49;107705;1281;74623;-74
2022/03/18 09:40:08;;;;;;;6.90;2.80;;;;;;;8.29;82.45;103647.89;107745;1281;72448;-74
2022/03/18 09:42:55;;;;;;;8.80;2.70;;;;;;;8.37;81.97;103652.01;107765;1280;74516;-75
2022/03/18 09:45:24;;;;;;;11.00;2.50;;;;;;;8.49;82.46;103659.45;107745;1281;62315;-75
2022/03/18 09:47:52;;;;;;;13.70;2.80;;;;;;;8.62;80.78;103664.58;108220;1281;60028;-74
2022/03/18 09:50:20;;;;;;;10.40;2.50;;;;;;;8.70;79.62;103665.86;107790;1280;76379;-74
2022/03/18 09:52:48;;;;;;;8.50;2.50;;;;;;;8.71;78.57;103668.62;107722;1279;71367;-73
2022/03/18 09:55:14;;;;;;;9.90;2.10;;;;;;;8.74;78.46;103669.50;107772;1281;72962;-73
2022/03/18 09:57:41;;;;;;;15.40;5.00;;;;;;;8.74;77.09;103671.28;107888;1279;63127;-73
2022/03/18 10:00:11;;;;;;;9.40;1.80;;;;;;;8.79;78.28;103674.89;107772;1280;60462;-72
2022/03/18 10:02:38;;;;;;;8.70;4.10;;;;;;;8.86;77.93;103683.29;107705;1279;76616;-73
2022/03/18 10:05:13;;;;;;;26.40;3.90;;;;;;;8.92;77.79;103686.24;107950;1279;72798;-72
2022/03/18 10:07:54;;;;;;;8.00;2.20;;;;;;;9.03;77.37;103680.86;107738;1281;72949;-70
2022/03/18 10:10:31;;;;;;;9.00;2.80;;;;;;;9.10;75.93;103679.59;107863;1277;62869;-70
2022/03/18 10:13:12;;;;;;;8.30;2.40;;;;;;;9.19;76.78;103681.16;107769;1280;60585;-71
2022/03/18 10:15:39;;;;;;;12.50;3.00;;;;;;;9.31;75.75;103689.59;107738;1280;74818;-70
2022/03/18 10:18:10;;;;;;;9.10;3.00;;;;;;;9.39;75.53;103690.30;107772;1280;72286;-70
2022/03/18 10:20:42;;;;;;;10.10;3.10;;;;;;;9.49;76.15;103692.38;107915;1279;74175;-71
2022/03/18 10:23:15;;;;;;;10.20;3.30;;;;;;;9.58;75.44;103690.73;107749;1281;62326;-70
2022/03/18 10:25:53;;;;;;;11.40;2.90;;;;;;;9.70;75.04;103686.65;107762;1281;61022;-70
2022/03/18 10:28:43;;;;;;;6.90;2.60;;;;;;;9.84;75.07;103688.28;107732;1281;74911;-70
2022/03/18 10:31:12;;;;;;;10.70;2.30;;;;;;;9.99;74.62;103688.20;107664;1281;71479;-69
2022/03/18 10:39:36;;;;;;;8.50;3.00;;;;;;;10.38;73.65;103692.09;107909;1277;61821;-71
2022/03/18 10:42:12;;;;;;;7.70;2.70;;;;;;;10.52;72.35;103694.72;107644;1280;74805;-71
2022/03/18 10:44:58;;;;;;;7.80;2.40;;;;;;;10.59;71.30;103696.56;107744;1279;71370;-71
2022/03/18 10:47:42;;;;;;;8.80;2.70;;;;;;;10.65;69.66;103691.76;107681;1280;74358;-71
2022/03/18 10:50:25;;;;;;;;;;;;;;;;;;;;;
2022/03/18 10:53:06;;;;;;;7.60;2.60;;;;;;;10.78;68.87;103695.27;107707;1280;60674;-73
2022/03/18 10:55:36;;;;;;;10.00;2.90;;;;;;;10.87;69.66;103692.98;107693;1281;74884;-73
2022/03/18 10:58:10;;;;;;;8.00;2.20;;;;;;;10.94;68.65;103694.77;107754;1281;70913;-72
2022/03/18 11:01:01;;;;;;;10.70;2.30;;;;;;;10.93;67.70;103698.36;107667;1281;73218;-72
2022/03/18 11:03:33;;;;;;;7.40;2.40;;;;;;;11.03;68.93;103697.02;107715;1281;61010;-74
2022/03/18 11:06:08;;;;;;;6.20;2.00;;;;;;;11.23;69.72;103698.10;107462;1281;62938;-74
2022/03/18 11:08:42;;;;;;;7.10;2.30;;;;;;;11.40;68.18;103699.95;107696;1281;74127;-70
2022/03/18 11:11:22;;;;;;;11.20;3.00;;;;;;;11.56;67.81;103699.73;107748;1281;72468;-70
2022/03/18 11:14:00;;;;;;;6.10;2.40;;;;;;;11.70;67.38;103697.00;107746;1281;72635;-71
2022/03/18 11:16:30;;;;;;;7.50;2.40;;;;;;;11.81;66.81;103697.98;107722;1278;61997;-70
2022/03/18 11:18:58;;;;;;;6.60;1.70;;;;;;;11.93;66.58;103692.74;107734;1281;60594;-70
2022/03/18 11:21:35;;;;;;;6.60;2.20;;;;;;;12.06;66.15;103692.46;107707;1281;74988;-70
2022/03/18 11:24:04;;;;;;;9.10;2.00;;;;;;;12.16;65.03;103692.29;107734;1280;71684;-70
2022/03/18 11:26:31;;;;;;;7.90;3.00;;;;;;;12.28;65.11;103691.60;107703;1281;73377;-69
2022/03/18 11:29:09;;;;;;;7.10;2.90;;;;;;;12.40;64.80;103686.99;107730;1280;62200;-70
2022/03/18 11:31:36;;;;;;;8.10;2.80;;;;;;;12.52;64.52;103684.83;107878;1279;60568;-70
2022/03/18 11:34:21;;;;;;;7.00;2.40;;;;;;;12.60;63.89;103679.63;107726;1281;75987;-70
2022/03/18 11:37:07;;;;;;;7.60;2.20;;;;;;;12.66;62.02;103681.53;107695;1281;73921;-70
2022/03/18 11:39:34;;;;;;;6.30;2.20;;;;;;;12.54;60.85;103679.02;107711;1279;73033;-70
2022/03/18 11:42:07;;;;;;;6.00;2.10;;;;;;;12.57;63.02;103677.75;107667;1281;59102;-71
2022/03/18 11:44:54;;;;;;;6.00;2.50;;;;;;;12.61;60.83;103677.94;107713;1281;59600;-71
2022/03/18 11:47:20;;;;;;;11.60;2.50;;;;;;;12.59;61.24;103678.84;107750;1281;72851;-70
2022/03/18 11:49:52;;;;;;;6.30;2.10;;;;;;;12.71;62.20;103673.30;107794;1280;70244;-70
2022/03/18 11:52:19;;;;;;;5.60;2.00;;;;;;;12.92;61.25;103673.00;107934;1279;73506;-71
2022/03/18 11:54:52;;;;;;;7.80;2.60;;;;;;;13.08;60.31;103677.92;107693;1280;62411;-71
2022/03/18 11:57:38;;;;;;;7.20;2.30;;;;;;;13.41;59.42;103676.13;107729;1281;60366;-71
2022/03/18 12:00:09;;;;;;;5.60;2.30;;;;;;;13.83;57.77;103671.23;107673;1281;75355;-71
2022/03/18 12:02:37;;;;;;;7.90;2.00;;;;;;;14.30;55.96;103665.41;107719;1280;72154;-71
2022/03/18 12:05:05;;;;;;;5.80;2.00;;;;;;;14.76;54.39;103661.84;107610;1282;74351;-71
2022/03/18 12:07:50;;;;;;;8.60;2.60;;;;;;;15.13;51.81;103664.86;107694;1281;60725;-72
2022/03/18 12:10:35;;;;;;;7.10;2.30;;;;;;;15.59;50.77;103667.43;107768;1281;61694;-71
2022/03/18 12:13:03;;;;;;;5.90;1.80;;;;;;;16.09;49.71;103661.42;107683;1281;74403;-72